sensor_id;sensor_type;location;lat;lon;timestamp;P1;durP1;ratioP1;P2;durP2;ratioP2
8425;SDS011;4250;50.006;8.286;2022-07-03T00:00:34;4.03;;;3.40;;
8425;SDS011;4250;50.006;8.286;2022-07-03T00:03:02;5.47;;;3.57;;
8425;SDS011;4250;50.006;8.286;2022-07-03T00:05:27;5.47;;;3.80;;
8425;SDS011;4250;50.006;8.286;2022-07-03T00:07:53;8.20;;;3.90;;
8425;SDS011;4250;50.006;8.286;2022-07-03T00:10:18;5.53;;;3.20;;
8425;SDS011;4250;50.006;8.286;2022-07-03T00:12:44;6.13;;;3.40;;
8425;SDS011;4250;50.006;8.286;2022-07-03T00:15:12;6.80;;;3.80;;
8425;SDS011;4250;50.006;8.286;2022-07-03T00:17:38;4.37;;;3.50;;
8425;SDS011;4250;50.006;8.286;2022-07-03T00:20:03;5.27;;;3.50;;
8425;SDS011;4250;50.006;8.286;2022-07-03T00:22:29;7.20;;;3.93;;
8425;SDS011;4250;50.006;8.286;2022-07-03T00:25:07;5.73;;;3.73;;
8425;SDS011;4250;50.006;8.286;2022-07-03T00:27:36;4.47;;;3.33;;
8425;SDS011;4250;50.006;8.286;2022-07-03T00:30:05;4.77;;;3.43;;
8425;SDS011;4250;50.006;8.286;2022-07-03T00:32:33;5.50;;;3.23;;
8425;SDS011;4250;50.006;8.286;2022-07-03T00:34:58;4.17;;;3.30;;
8425;SDS011;4250;50.006;8.286;2022-07-03T00:37:24;4.97;;;3.20;;
8425;SDS011;4250;50.006;8.286;2022-07-03T00:39:49;3.47;;;3.00;;
8425;SDS011;4250;50.006;8.286;2022-07-03T00:42:16;4.20;;;2.97;;
8425;SDS011;4250;50.006;8.286;2022-07-03T00:44:45;5.80;;;3.27;;
8425;SDS011;4250;50.006;8.286;2022-07-03T00:47:13;4.33;;;2.70;;
8425;SDS011;4250;50.006;8.286;2022-07-03T00:49:40;3.53;;;3.23;;
8425;SDS011;4250;50.006;8.286;2022-07-03T00:52:09;5.27;;;3.00;;
8425;SDS011;4250;50.006;8.286;2022-07-03T00:54:36;3.77;;;2.90;;
8425;SDS011;4250;50.006;8.286;2022-07-03T00:57:04;3.53;;;3.23;;
8425;SDS011;4250;50.006;8.286;2022-07-03T00:59:32;4.80;;;3.30;;
8425;SDS011;4250;50.006;8.286;2022-07-03T01:02:06;6.27;;;3.10;;
8425;SDS011;4250;50.006;8.286;2022-07-03T01:04:40;5.20;;;3.30;;
8425;SDS011;4250;50.006;8.286;2022-07-03T01:07:34;4.83;;;3.57;;
8425;SDS011;4250;50.006;8.286;2022-07-03T01:10:17;4.97;;;3.03;;
8425;SDS011;4250;50.006;8.286;2022-07-03T01:13:00;8.03;;;3.07;;
8425;SDS011;4250;50.006;8.286;2022-07-03T01:18:38;4.23;;;3.03;;
8425;SDS011;4250;50.006;8.286;2022-07-03T01:21:16;4.87;;;3.30;;
8425;SDS011;4250;50.006;8.286;2022-07-03T01:26:45;4.83;;;3.27;;
8425;SDS011;4250;50.006;8.286;2022-07-03T01:29:20;5.57;;;3.17;;
8425;SDS011;4250;50.006;8.286;2022-07-03T01:31:48;7.50;;;2.90;;
8425;SDS011;4250;50.006;8.286;2022-07-03T01:34:16;3.43;;;3.13;;
8425;SDS011;4250;50.006;8.286;2022-07-03T01:36:43;6.07;;;3.40;;
8425;SDS011;4250;50.006;8.286;2022-07-03T01:39:12;5.57;;;3.33;;
8425;SDS011;4250;50.006;8.286;2022-07-03T01:41:41;4.70;;;3.40;;
8425;SDS011;4250;50.006;8.286;2022-07-03T01:44:08;5.70;;;3.03;;
8425;SDS011;4250;50.006;8.286;2022-07-03T01:46:35;3.63;;;2.80;;
8425;SDS011;4250;50.006;8.286;2022-07-03T01:49:00;5.73;;;2.80;;
8425;SDS011;4250;50.006;8.286;2022-07-03T01:51:26;4.60;;;2.47;;
8425;SDS011;4250;50.006;8.286;2022-07-03T01:53:52;5.13;;;3.10;;
8425;SDS011;4250;50.006;8.286;2022-07-03T01:56:19;7.53;;;4.37;;
8425;SDS011;4250;50.006;8.286;2022-07-03T01:58:48;8.50;;;5.50;;
8425;SDS011;4250;50.006;8.286;2022-07-03T02:01:20;10.07;;;6.67;;
8425;SDS011;4250;50.006;8.286;2022-07-03T02:03:51;10.87;;;6.97;;
8425;SDS011;4250;50.006;8.286;2022-07-03T02:09:49;16.63;;;8.30;;
8425;SDS011;4250;50.006;8.286;2022-07-03T02:12:36;15.67;;;8.33;;
8425;SDS011;4250;50.006;8.286;2022-07-03T02:15:09;11.70;;;7.67;;
8425;SDS011;4250;50.006;8.286;2022-07-03T02:17:47;8.37;;;6.53;;
8425;SDS011;4250;50.006;8.286;2022-07-03T02:20:13;9.53;;;5.87;;
8425;SDS011;4250;50.006;8.286;2022-07-03T02:22:44;11.27;;;6.00;;
8425;SDS011;4250;50.006;8.286;2022-07-03T02:25:21;8.33;;;5.17;;
8425;SDS011;4250;50.006;8.286;2022-07-03T02:28:09;7.53;;;4.53;;
8425;SDS011;4250;50.006;8.286;2022-07-03T02:30:42;6.87;;;5.27;;
8425;SDS011;4250;50.006;8.286;2022-07-03T02:33:09;5.30;;;4.00;;
8425;SDS011;4250;50.006;8.286;2022-07-03T02:35:36;9.17;;;4.77;;
8425;SDS011;4250;50.006;8.286;2022-07-03T02:38:09;6.37;;;4.80;;
8425;SDS011;4250;50.006;8.286;2022-07-03T02:40:43;7.20;;;4.77;;
8425;SDS011;4250;50.006;8.286;2022-07-03T02:43:30;8.83;;;5.43;;
8425;SDS011;4250;50.006;8.286;2022-07-03T02:52:04;9.90;;;5.10;;
8425;SDS011;4250;50.006;8.286;2022-07-03T02:54:51;8.67;;;5.40;;
8425;SDS011;4250;50.006;8.286;2022-07-03T02:57:17;6.83;;;4.87;;
8425;SDS011;4250;50.006;8.286;2022-07-03T02:59:52;7.40;;;4.93;;
8425;SDS011;4250;50.006;8.286;2022-07-03T03:04:49;7.43;;;5.10;;
8425;SDS011;4250;50.006;8.286;2022-07-03T03:07:20;6.33;;;4.73;;
8425;SDS011;4250;50.006;8.286;2022-07-03T03:09:49;7.27;;;5.27;;
8425;SDS011;4250;50.006;8.286;2022-07-03T03:12:16;7.43;;;4.97;;
8425;SDS011;4250;50.006;8.286;2022-07-03T03:15:01;6.60;;;4.90;;
8425;SDS011;4250;50.006;8.286;2022-07-03T03:17:29;5.23;;;4.23;;
8425;SDS011;4250;50.006;8.286;2022-07-03T03:20:02;7.37;;;4.80;;
8425;SDS011;4250;50.006;8.286;2022-07-03T03:22:30;7.07;;;4.30;;
8425;SDS011;4250;50.006;8.286;2022-07-03T03:25:02;6.80;;;4.23;;
8425;SDS011;4250;50.006;8.286;2022-07-03T03:27:27;5.70;;;3.93;;
8425;SDS011;4250;50.006;8.286;2022-07-03T03:29:53;7.60;;;4.40;;
8425;SDS011;4250;50.006;8.286;2022-07-03T03:32:18;9.23;;;4.40;;
8425;SDS011;4250;50.006;8.286;2022-07-03T03:34:44;5.73;;;4.13;;
8425;SDS011;4250;50.006;8.286;2022-07-03T03:37:13;6.93;;;4.80;;
8425;SDS011;4250;50.006;8.286;2022-07-03T03:39:39;9.33;;;4.40;;
8425;SDS011;4250;50.006;8.286;2022-07-03T03:42:04;7.50;;;4.00;;
8425;SDS011;4250;50.006;8.286;2022-07-03T03:44:30;5.27;;;3.97;;
8425;SDS011;4250;50.006;8.286;2022-07-03T03:46:55;5.30;;;3.83;;
8425;SDS011;4250;50.006;8.286;2022-07-03T03:49:21;9.83;;;4.77;;
8425;SDS011;4250;50.006;8.286;2022-07-03T03:51:47;6.93;;;4.77;;
8425;SDS011;4250;50.006;8.286;2022-07-03T03:54:12;9.93;;;5.37;;
8425;SDS011;4250;50.006;8.286;2022-07-03T03:56:38;8.90;;;5.60;;
8425;SDS011;4250;50.006;8.286;2022-07-03T03:59:03;9.43;;;5.97;;
8425;SDS011;4250;50.006;8.286;2022-07-03T04:01:28;11.57;;;6.80;;
8425;SDS011;4250;50.006;8.286;2022-07-03T04:03:54;14.50;;;6.93;;
8425;SDS011;4250;50.006;8.286;2022-07-03T04:06:19;10.70;;;6.07;;
8425;SDS011;4250;50.006;8.286;2022-07-03T04:08:45;8.80;;;5.77;;
8425;SDS011;4250;50.006;8.286;2022-07-03T04:11:10;9.73;;;5.70;;
8425;SDS011;4250;50.006;8.286;2022-07-03T04:13:38;9.80;;;5.67;;
8425;SDS011;4250;50.006;8.286;2022-07-03T04:16:04;9.53;;;5.80;;
8425;SDS011;4250;50.006;8.286;2022-07-03T04:18:29;10.80;;;5.70;;
8425;SDS011;4250;50.006;8.286;2022-07-03T04:20:55;6.77;;;5.27;;
8425;SDS011;4250;50.006;8.286;2022-07-03T04:23:20;7.60;;;4.80;;
8425;SDS011;4250;50.006;8.286;2022-07-03T04:25:46;10.43;;;5.40;;
8425;SDS011;4250;50.006;8.286;2022-07-03T04:28:12;9.47;;;4.77;;
8425;SDS011;4250;50.006;8.286;2022-07-03T04:30:37;8.40;;;4.10;;
8425;SDS011;4250;50.006;8.286;2022-07-03T04:33:02;9.00;;;4.60;;
8425;SDS011;4250;50.006;8.286;2022-07-03T04:35:28;7.73;;;4.13;;
8425;SDS011;4250;50.006;8.286;2022-07-03T04:37:53;7.33;;;4.47;;
8425;SDS011;4250;50.006;8.286;2022-07-03T04:40:19;8.77;;;4.10;;
8425;SDS011;4250;50.006;8.286;2022-07-03T04:42:44;9.53;;;4.13;;
8425;SDS011;4250;50.006;8.286;2022-07-03T04:45:09;8.60;;;4.77;;
8425;SDS011;4250;50.006;8.286;2022-07-03T04:47:35;8.43;;;4.17;;
8425;SDS011;4250;50.006;8.286;2022-07-03T04:50:03;9.33;;;3.90;;
8425;SDS011;4250;50.006;8.286;2022-07-03T04:52:29;7.73;;;3.90;;
8425;SDS011;4250;50.006;8.286;2022-07-03T04:54:54;8.97;;;4.30;;
8425;SDS011;4250;50.006;8.286;2022-07-03T04:57:20;8.90;;;4.33;;
8425;SDS011;4250;50.006;8.286;2022-07-03T04:59:45;7.33;;;4.27;;
8425;SDS011;4250;50.006;8.286;2022-07-03T05:02:11;7.80;;;5.20;;
8425;SDS011;4250;50.006;8.286;2022-07-03T05:04:37;4.20;;;3.70;;
8425;SDS011;4250;50.006;8.286;2022-07-03T05:07:03;6.73;;;3.83;;
8425;SDS011;4250;50.006;8.286;2022-07-03T05:09:28;5.10;;;3.57;;
8425;SDS011;4250;50.006;8.286;2022-07-03T05:11:53;3.87;;;3.27;;
8425;SDS011;4250;50.006;8.286;2022-07-03T05:14:19;3.90;;;3.10;;
8425;SDS011;4250;50.006;8.286;2022-07-03T05:16:44;5.67;;;2.83;;
8425;SDS011;4250;50.006;8.286;2022-07-03T05:19:09;10.83;;;7.67;;
8425;SDS011;4250;50.006;8.286;2022-07-03T05:21:35;4.97;;;3.47;;
8425;SDS011;4250;50.006;8.286;2022-07-03T05:24:00;3.10;;;2.80;;
8425;SDS011;4250;50.006;8.286;2022-07-03T05:26:26;7.33;;;3.23;;
8425;SDS011;4250;50.006;8.286;2022-07-03T05:28:51;5.40;;;3.40;;
8425;SDS011;4250;50.006;8.286;2022-07-03T05:31:16;5.00;;;3.53;;
8425;SDS011;4250;50.006;8.286;2022-07-03T05:33:42;3.90;;;3.50;;
8425;SDS011;4250;50.006;8.286;2022-07-03T05:36:07;4.10;;;3.57;;
8425;SDS011;4250;50.006;8.286;2022-07-03T05:38:33;5.30;;;3.87;;
8425;SDS011;4250;50.006;8.286;2022-07-03T05:41:17;5.53;;;3.67;;
8425;SDS011;4250;50.006;8.286;2022-07-03T05:43:43;5.03;;;3.33;;
8425;SDS011;4250;50.006;8.286;2022-07-03T05:46:09;4.63;;;3.43;;
8425;SDS011;4250;50.006;8.286;2022-07-03T05:48:34;4.00;;;2.87;;
8425;SDS011;4250;50.006;8.286;2022-07-03T05:51:00;4.43;;;3.20;;
8425;SDS011;4250;50.006;8.286;2022-07-03T05:53:25;5.20;;;3.37;;
8425;SDS011;4250;50.006;8.286;2022-07-03T05:55:51;4.40;;;3.43;;
8425;SDS011;4250;50.006;8.286;2022-07-03T05:58:16;3.40;;;3.10;;
8425;SDS011;4250;50.006;8.286;2022-07-03T06:00:43;4.30;;;3.00;;
8425;SDS011;4250;50.006;8.286;2022-07-03T06:03:09;6.20;;;4.07;;
8425;SDS011;4250;50.006;8.286;2022-07-03T06:05:34;3.83;;;3.43;;
8425;SDS011;4250;50.006;8.286;2022-07-03T06:08:00;5.43;;;3.70;;
8425;SDS011;4250;50.006;8.286;2022-07-03T06:10:26;6.43;;;3.63;;
8425;SDS011;4250;50.006;8.286;2022-07-03T06:12:52;5.57;;;3.43;;
8425;SDS011;4250;50.006;8.286;2022-07-03T06:15:18;7.43;;;4.00;;
8425;SDS011;4250;50.006;8.286;2022-07-03T06:17:43;6.30;;;3.93;;
8425;SDS011;4250;50.006;8.286;2022-07-03T06:20:09;4.33;;;3.80;;
8425;SDS011;4250;50.006;8.286;2022-07-03T06:22:35;5.60;;;3.10;;
8425;SDS011;4250;50.006;8.286;2022-07-03T06:25:00;4.33;;;3.73;;
8425;SDS011;4250;50.006;8.286;2022-07-03T06:27:26;4.90;;;3.83;;
8425;SDS011;4250;50.006;8.286;2022-07-03T06:29:51;6.27;;;3.30;;
8425;SDS011;4250;50.006;8.286;2022-07-03T06:32:17;4.73;;;3.40;;
8425;SDS011;4250;50.006;8.286;2022-07-03T06:34:43;4.70;;;3.47;;
8425;SDS011;4250;50.006;8.286;2022-07-03T06:37:12;3.70;;;3.23;;
8425;SDS011;4250;50.006;8.286;2022-07-03T06:39:37;4.67;;;3.50;;
8425;SDS011;4250;50.006;8.286;2022-07-03T06:42:03;4.50;;;3.50;;
8425;SDS011;4250;50.006;8.286;2022-07-03T06:44:29;6.00;;;3.70;;
8425;SDS011;4250;50.006;8.286;2022-07-03T06:46:54;4.40;;;3.67;;
8425;SDS011;4250;50.006;8.286;2022-07-03T06:49:20;5.80;;;3.30;;
8425;SDS011;4250;50.006;8.286;2022-07-03T06:51:46;4.13;;;3.43;;
8425;SDS011;4250;50.006;8.286;2022-07-03T06:54:12;4.90;;;3.30;;
8425;SDS011;4250;50.006;8.286;2022-07-03T06:56:37;4.43;;;3.67;;
8425;SDS011;4250;50.006;8.286;2022-07-03T06:59:03;5.63;;;3.80;;
8425;SDS011;4250;50.006;8.286;2022-07-03T07:01:28;4.73;;;3.47;;
8425;SDS011;4250;50.006;8.286;2022-07-03T07:03:54;7.53;;;3.83;;
8425;SDS011;4250;50.006;8.286;2022-07-03T07:06:20;4.80;;;3.97;;
8425;SDS011;4250;50.006;8.286;2022-07-03T07:08:47;5.77;;;3.30;;
8425;SDS011;4250;50.006;8.286;2022-07-03T07:11:20;5.53;;;3.20;;
8425;SDS011;4250;50.006;8.286;2022-07-03T07:13:46;6.00;;;3.53;;
8425;SDS011;4250;50.006;8.286;2022-07-03T07:16:12;6.03;;;3.23;;
8425;SDS011;4250;50.006;8.286;2022-07-03T07:18:39;4.70;;;3.43;;
8425;SDS011;4250;50.006;8.286;2022-07-03T07:21:05;3.77;;;3.13;;
8425;SDS011;4250;50.006;8.286;2022-07-03T07:23:31;3.67;;;3.07;;
8425;SDS011;4250;50.006;8.286;2022-07-03T07:25:57;3.30;;;3.00;;
8425;SDS011;4250;50.006;8.286;2022-07-03T07:28:23;3.23;;;2.87;;
8425;SDS011;4250;50.006;8.286;2022-07-03T07:30:48;4.30;;;3.10;;
8425;SDS011;4250;50.006;8.286;2022-07-03T07:33:13;4.20;;;3.27;;
8425;SDS011;4250;50.006;8.286;2022-07-03T07:35:39;4.40;;;3.20;;
8425;SDS011;4250;50.006;8.286;2022-07-03T07:38:05;4.50;;;3.60;;
8425;SDS011;4250;50.006;8.286;2022-07-03T07:40:30;6.90;;;3.57;;
8425;SDS011;4250;50.006;8.286;2022-07-03T07:42:56;4.97;;;3.03;;
8425;SDS011;4250;50.006;8.286;2022-07-03T07:45:21;4.97;;;3.47;;
8425;SDS011;4250;50.006;8.286;2022-07-03T07:47:47;3.77;;;3.03;;
8425;SDS011;4250;50.006;8.286;2022-07-03T07:50:12;4.93;;;2.97;;
8425;SDS011;4250;50.006;8.286;2022-07-03T07:52:39;4.10;;;2.83;;
8425;SDS011;4250;50.006;8.286;2022-07-03T07:55:05;3.33;;;2.93;;
8425;SDS011;4250;50.006;8.286;2022-07-03T07:57:35;3.47;;;2.87;;
8425;SDS011;4250;50.006;8.286;2022-07-03T08:00:05;4.87;;;2.47;;
8425;SDS011;4250;50.006;8.286;2022-07-03T08:02:37;16.90;;;3.40;;
8425;SDS011;4250;50.006;8.286;2022-07-03T08:05:22;3.30;;;2.67;;
8425;SDS011;4250;50.006;8.286;2022-07-03T08:08:10;3.30;;;3.00;;
8425;SDS011;4250;50.006;8.286;2022-07-03T08:10:45;4.27;;;2.67;;
8425;SDS011;4250;50.006;8.286;2022-07-03T08:13:15;4.00;;;2.80;;
8425;SDS011;4250;50.006;8.286;2022-07-03T08:15:44;3.73;;;2.23;;
8425;SDS011;4250;50.006;8.286;2022-07-03T08:18:10;3.43;;;2.57;;
8425;SDS011;4250;50.006;8.286;2022-07-03T08:20:36;2.67;;;2.43;;
8425;SDS011;4250;50.006;8.286;2022-07-03T08:23:02;3.53;;;2.23;;
8425;SDS011;4250;50.006;8.286;2022-07-03T08:25:30;6.27;;;2.63;;
8425;SDS011;4250;50.006;8.286;2022-07-03T08:27:56;2.77;;;2.23;;
8425;SDS011;4250;50.006;8.286;2022-07-03T08:30:21;2.50;;;2.20;;
8425;SDS011;4250;50.006;8.286;2022-07-03T08:32:48;2.10;;;1.90;;
8425;SDS011;4250;50.006;8.286;2022-07-03T08:35:15;1.50;;;1.30;;
8425;SDS011;4250;50.006;8.286;2022-07-03T08:37:41;2.20;;;1.90;;
8425;SDS011;4250;50.006;8.286;2022-07-03T08:40:08;2.80;;;1.80;;
8425;SDS011;4250;50.006;8.286;2022-07-03T08:42:34;3.72;;;1.70;;
8425;SDS011;4250;50.006;8.286;2022-07-03T08:45:03;4.03;;;1.73;;
8425;SDS011;4250;50.006;8.286;2022-07-03T08:47:31;2.30;;;1.60;;
8425;SDS011;4250;50.006;8.286;2022-07-03T08:49:57;1.90;;;1.70;;
8425;SDS011;4250;50.006;8.286;2022-07-03T08:52:23;5.20;;;1.60;;
8425;SDS011;4250;50.006;8.286;2022-07-03T08:54:49;4.25;;;1.50;;
8425;SDS011;4250;50.006;8.286;2022-07-03T08:57:15;1.67;;;1.58;;
8425;SDS011;4250;50.006;8.286;2022-07-03T08:59:42;2.20;;;2.03;;
8425;SDS011;4250;50.006;8.286;2022-07-03T09:02:11;1.63;;;1.50;;
8425;SDS011;4250;50.006;8.286;2022-07-03T09:04:37;1.25;;;1.13;;
8425;SDS011;4250;50.006;8.286;2022-07-03T09:07:04;2.15;;;1.48;;
8425;SDS011;4250;50.006;8.286;2022-07-03T09:09:32;2.75;;;1.80;;
8425;SDS011;4250;50.006;8.286;2022-07-03T09:11:58;1.50;;;1.40;;
8425;SDS011;4250;50.006;8.286;2022-07-03T09:14:24;3.58;;;1.30;;
8425;SDS011;4250;50.006;8.286;2022-07-03T09:16:49;1.30;;;1.20;;
8425;SDS011;4250;50.006;8.286;2022-07-03T09:19:15;1.40;;;1.10;;
8425;SDS011;4250;50.006;8.286;2022-07-03T09:21:41;1.60;;;0.90;;
8425;SDS011;4250;50.006;8.286;2022-07-03T09:24:07;1.90;;;0.90;;
8425;SDS011;4250;50.006;8.286;2022-07-03T09:26:35;1.13;;;0.90;;
8425;SDS011;4250;50.006;8.286;2022-07-03T09:29:02;2.15;;;1.08;;
8425;SDS011;4250;50.006;8.286;2022-07-03T09:31:28;3.35;;;0.90;;
8425;SDS011;4250;50.006;8.286;2022-07-03T09:34:01;1.98;;;1.02;;
8425;SDS011;4250;50.006;8.286;2022-07-03T09:36:39;1.83;;;0.73;;
8425;SDS011;4250;50.006;8.286;2022-07-03T09:42:01;1.25;;;1.10;;
8425;SDS011;4250;50.006;8.286;2022-07-03T09:47:07;5.80;;;0.93;;
8425;SDS011;4250;50.006;8.286;2022-07-03T09:49:49;2.08;;;0.70;;
8425;SDS011;4250;50.006;8.286;2022-07-03T09:52:32;2.25;;;0.93;;
8425;SDS011;4250;50.006;8.286;2022-07-03T09:57:35;3.13;;;0.88;;
8425;SDS011;4250;50.006;8.286;2022-07-03T10:02:58;3.05;;;0.98;;
8425;SDS011;4250;50.006;8.286;2022-07-03T10:05:31;2.45;;;0.80;;
8425;SDS011;4250;50.006;8.286;2022-07-03T10:07:58;1.05;;;0.90;;
8425;SDS011;4250;50.006;8.286;2022-07-03T10:10:26;1.15;;;0.80;;
8425;SDS011;4250;50.006;8.286;2022-07-03T10:12:54;1.60;;;0.77;;
8425;SDS011;4250;50.006;8.286;2022-07-03T10:18:12;1.40;;;0.90;;
8425;SDS011;4250;50.006;8.286;2022-07-03T10:20:53;3.80;;;0.75;;
8425;SDS011;4250;50.006;8.286;2022-07-03T10:23:22;1.58;;;0.80;;
8425;SDS011;4250;50.006;8.286;2022-07-03T10:25:48;1.33;;;0.60;;
8425;SDS011;4250;50.006;8.286;2022-07-03T10:28:22;0.90;;;0.70;;
8425;SDS011;4250;50.006;8.286;2022-07-03T10:30:54;3.10;;;1.05;;
8425;SDS011;4250;50.006;8.286;2022-07-03T10:33:20;1.48;;;0.80;;
8425;SDS011;4250;50.006;8.286;2022-07-03T10:35:49;1.95;;;0.98;;
8425;SDS011;4250;50.006;8.286;2022-07-03T10:41:01;2.72;;;0.70;;
8425;SDS011;4250;50.006;8.286;2022-07-03T10:43:48;2.22;;;0.73;;
8425;SDS011;4250;50.006;8.286;2022-07-03T10:46:34;2.40;;;0.90;;
8425;SDS011;4250;50.006;8.286;2022-07-03T10:49:06;1.58;;;0.80;;
8425;SDS011;4250;50.006;8.286;2022-07-03T10:54:14;2.08;;;0.98;;
8425;SDS011;4250;50.006;8.286;2022-07-03T11:02:16;1.20;;;0.82;;
8425;SDS011;4250;50.006;8.286;2022-07-03T11:07:29;3.65;;;0.90;;
8425;SDS011;4250;50.006;8.286;2022-07-03T11:15:40;1.35;;;0.90;;
8425;SDS011;4250;50.006;8.286;2022-07-03T11:23:14;3.20;;;0.73;;
8425;SDS011;4250;50.006;8.286;2022-07-03T11:25:44;1.90;;;0.90;;
8425;SDS011;4250;50.006;8.286;2022-07-03T11:38:42;1.00;;;0.80;;
8425;SDS011;4250;50.006;8.286;2022-07-03T11:41:08;2.03;;;0.60;;
8425;SDS011;4250;50.006;8.286;2022-07-03T11:43:34;2.88;;;0.98;;
8425;SDS011;4250;50.006;8.286;2022-07-03T11:46:00;0.85;;;0.85;;
8425;SDS011;4250;50.006;8.286;2022-07-03T11:48:26;0.60;;;0.60;;
8425;SDS011;4250;50.006;8.286;2022-07-03T11:50:52;1.17;;;0.60;;
8425;SDS011;4250;50.006;8.286;2022-07-03T11:53:34;1.25;;;0.63;;
8425;SDS011;4250;50.006;8.286;2022-07-03T11:56:08;1.35;;;1.00;;
8425;SDS011;4250;50.006;8.286;2022-07-03T12:01:52;1.20;;;0.85;;
8425;SDS011;4250;50.006;8.286;2022-07-03T12:04:08;1.67;;;0.80;;
8425;SDS011;4250;50.006;8.286;2022-07-03T12:06:46;0.82;;;0.70;;
8425;SDS011;4250;50.006;8.286;2022-07-03T12:11:55;2.17;;;0.90;;
8425;SDS011;4250;50.006;8.286;2022-07-03T12:19:46;3.03;;;1.10;;
8425;SDS011;4250;50.006;8.286;2022-07-03T12:22:22;3.65;;;1.65;;
8425;SDS011;4250;50.006;8.286;2022-07-03T12:25:06;3.20;;;0.80;;
8425;SDS011;4250;50.006;8.286;2022-07-03T12:27:37;1.48;;;0.90;;
8425;SDS011;4250;50.006;8.286;2022-07-03T12:30:07;2.83;;;1.10;;
8425;SDS011;4250;50.006;8.286;2022-07-03T12:32:33;1.85;;;0.90;;
8425;SDS011;4250;50.006;8.286;2022-07-03T12:38:08;2.22;;;0.82;;
8425;SDS011;4250;50.006;8.286;2022-07-03T12:40:34;2.58;;;0.73;;
8425;SDS011;4250;50.006;8.286;2022-07-03T12:43:00;1.80;;;0.60;;
8425;SDS011;4250;50.006;8.286;2022-07-03T12:45:26;1.17;;;0.70;;
8425;SDS011;4250;50.006;8.286;2022-07-03T12:47:59;1.20;;;0.60;;
8425;SDS011;4250;50.006;8.286;2022-07-03T12:50:55;0.93;;;0.88;;
8425;SDS011;4250;50.006;8.286;2022-07-03T12:53:27;1.20;;;0.80;;
8425;SDS011;4250;50.006;8.286;2022-07-03T12:55:53;1.35;;;0.80;;
8425;SDS011;4250;50.006;8.286;2022-07-03T12:58:22;1.92;;;0.98;;
8425;SDS011;4250;50.006;8.286;2022-07-03T13:01:06;1.00;;;0.80;;
8425;SDS011;4250;50.006;8.286;2022-07-03T13:03:35;2.50;;;0.80;;
8425;SDS011;4250;50.006;8.286;2022-07-03T13:06:00;0.88;;;0.80;;
8425;SDS011;4250;50.006;8.286;2022-07-03T13:08:25;0.93;;;0.70;;
8425;SDS011;4250;50.006;8.286;2022-07-03T13:10:57;1.80;;;0.70;;
8425;SDS011;4250;50.006;8.286;2022-07-03T13:13:23;2.47;;;0.90;;
8425;SDS011;4250;50.006;8.286;2022-07-03T13:15:48;0.75;;;0.70;;
8425;SDS011;4250;50.006;8.286;2022-07-03T13:18:14;2.75;;;0.70;;
8425;SDS011;4250;50.006;8.286;2022-07-03T13:20:39;1.33;;;0.80;;
8425;SDS011;4250;50.006;8.286;2022-07-03T13:23:05;1.25;;;0.70;;
8425;SDS011;4250;50.006;8.286;2022-07-03T13:25:31;1.67;;;0.70;;
8425;SDS011;4250;50.006;8.286;2022-07-03T13:28:12;0.90;;;0.90;;
8425;SDS011;4250;50.006;8.286;2022-07-03T13:30:39;2.05;;;0.80;;
8425;SDS011;4250;50.006;8.286;2022-07-03T13:33:05;1.23;;;0.80;;
8425;SDS011;4250;50.006;8.286;2022-07-03T13:35:31;1.42;;;0.80;;
8425;SDS011;4250;50.006;8.286;2022-07-03T13:38:02;0.70;;;0.70;;
8425;SDS011;4250;50.006;8.286;2022-07-03T13:40:39;0.80;;;0.80;;
8425;SDS011;4250;50.006;8.286;2022-07-03T13:43:11;4.75;;;1.00;;
8425;SDS011;4250;50.006;8.286;2022-07-03T13:45:36;1.58;;;0.70;;
8425;SDS011;4250;50.006;8.286;2022-07-03T13:48:04;2.17;;;0.65;;
8425;SDS011;4250;50.006;8.286;2022-07-03T13:50:30;2.67;;;0.90;;
8425;SDS011;4250;50.006;8.286;2022-07-03T13:55:37;1.17;;;0.90;;
8425;SDS011;4250;50.006;8.286;2022-07-03T13:58:03;3.80;;;0.90;;
8425;SDS011;4250;50.006;8.286;2022-07-03T14:00:29;2.35;;;0.77;;
8425;SDS011;4250;50.006;8.286;2022-07-03T14:02:55;2.10;;;0.80;;
8425;SDS011;4250;50.006;8.286;2022-07-03T14:05:20;2.13;;;0.93;;
8425;SDS011;4250;50.006;8.286;2022-07-03T14:07:46;1.23;;;0.70;;
8425;SDS011;4250;50.006;8.286;2022-07-03T14:10:14;2.60;;;0.80;;
8425;SDS011;4250;50.006;8.286;2022-07-03T14:12:40;3.33;;;0.73;;
8425;SDS011;4250;50.006;8.286;2022-07-03T14:15:05;1.02;;;0.80;;
8425;SDS011;4250;50.006;8.286;2022-07-03T14:17:31;0.77;;;0.73;;
8425;SDS011;4250;50.006;8.286;2022-07-03T14:19:57;1.02;;;0.73;;
8425;SDS011;4250;50.006;8.286;2022-07-03T14:22:28;1.98;;;0.70;;
8425;SDS011;4250;50.006;8.286;2022-07-03T14:24:53;1.70;;;0.80;;
8425;SDS011;4250;50.006;8.286;2022-07-03T14:27:19;3.30;;;0.80;;
8425;SDS011;4250;50.006;8.286;2022-07-03T14:30:04;1.17;;;0.80;;
8425;SDS011;4250;50.006;8.286;2022-07-03T14:32:48;1.20;;;0.70;;
8425;SDS011;4250;50.006;8.286;2022-07-03T14:35:13;1.85;;;0.90;;
8425;SDS011;4250;50.006;8.286;2022-07-03T14:37:38;1.58;;;0.70;;
8425;SDS011;4250;50.006;8.286;2022-07-03T14:40:04;1.83;;;0.88;;
8425;SDS011;4250;50.006;8.286;2022-07-03T14:42:29;0.60;;;0.60;;
8425;SDS011;4250;50.006;8.286;2022-07-03T14:44:55;4.75;;;0.90;;
8425;SDS011;4250;50.006;8.286;2022-07-03T14:47:20;2.80;;;0.68;;
8425;SDS011;4250;50.006;8.286;2022-07-03T14:49:46;2.42;;;0.80;;
8425;SDS011;4250;50.006;8.286;2022-07-03T14:52:11;0.73;;;0.60;;
8425;SDS011;4250;50.006;8.286;2022-07-03T14:57:06;3.60;;;0.70;;
8425;SDS011;4250;50.006;8.286;2022-07-03T15:02:05;1.60;;;0.85;;
8425;SDS011;4250;50.006;8.286;2022-07-03T15:04:40;2.70;;;0.70;;
8425;SDS011;4250;50.006;8.286;2022-07-03T15:07:13;1.70;;;0.70;;
8425;SDS011;4250;50.006;8.286;2022-07-03T15:09:42;4.93;;;1.30;;
8425;SDS011;4250;50.006;8.286;2022-07-03T15:12:16;1.33;;;0.73;;
8425;SDS011;4250;50.006;8.286;2022-07-03T15:14:51;0.95;;;0.70;;
8425;SDS011;4250;50.006;8.286;2022-07-03T15:17:18;1.30;;;0.60;;
8425;SDS011;4250;50.006;8.286;2022-07-03T15:19:45;2.15;;;0.88;;
8425;SDS011;4250;50.006;8.286;2022-07-03T15:22:12;1.73;;;0.90;;
8425;SDS011;4250;50.006;8.286;2022-07-03T15:24:40;2.88;;;0.80;;
8425;SDS011;4250;50.006;8.286;2022-07-03T15:27:06;1.42;;;0.80;;
8425;SDS011;4250;50.006;8.286;2022-07-03T15:29:32;2.90;;;0.85;;
8425;SDS011;4250;50.006;8.286;2022-07-03T15:32:00;2.42;;;0.80;;
8425;SDS011;4250;50.006;8.286;2022-07-03T15:34:26;0.70;;;0.70;;
8425;SDS011;4250;50.006;8.286;2022-07-03T15:36:54;1.77;;;0.73;;
8425;SDS011;4250;50.006;8.286;2022-07-03T15:39:25;3.80;;;0.70;;
8425;SDS011;4250;50.006;8.286;2022-07-03T15:42:05;1.13;;;0.90;;
8425;SDS011;4250;50.006;8.286;2022-07-03T15:44:38;1.10;;;0.70;;
8425;SDS011;4250;50.006;8.286;2022-07-03T15:47:28;0.70;;;0.70;;
8425;SDS011;4250;50.006;8.286;2022-07-03T15:49:57;0.60;;;0.57;;
8425;SDS011;4250;50.006;8.286;2022-07-03T15:52:23;1.33;;;0.63;;
8425;SDS011;4250;50.006;8.286;2022-07-03T15:55:02;5.35;;;0.93;;
8425;SDS011;4250;50.006;8.286;2022-07-03T15:57:39;1.60;;;0.80;;
8425;SDS011;4250;50.006;8.286;2022-07-03T16:00:11;0.80;;;0.80;;
8425;SDS011;4250;50.006;8.286;2022-07-03T16:05:25;2.63;;;0.80;;
8425;SDS011;4250;50.006;8.286;2022-07-03T16:07:52;1.48;;;0.68;;
8425;SDS011;4250;50.006;8.286;2022-07-03T16:10:18;2.75;;;0.82;;
8425;SDS011;4250;50.006;8.286;2022-07-03T16:12:43;0.90;;;0.70;;
8425;SDS011;4250;50.006;8.286;2022-07-03T16:15:10;1.23;;;0.60;;
8425;SDS011;4250;50.006;8.286;2022-07-03T16:17:36;1.13;;;0.70;;
8425;SDS011;4250;50.006;8.286;2022-07-03T16:20:02;3.35;;;0.90;;
8425;SDS011;4250;50.006;8.286;2022-07-03T16:22:29;1.60;;;0.60;;
8425;SDS011;4250;50.006;8.286;2022-07-03T16:24:57;1.15;;;0.65;;
8425;SDS011;4250;50.006;8.286;2022-07-03T16:27:23;0.82;;;0.70;;
8425;SDS011;4250;50.006;8.286;2022-07-03T16:29:49;0.88;;;0.50;;
8425;SDS011;4250;50.006;8.286;2022-07-03T16:32:18;1.35;;;0.80;;
8425;SDS011;4250;50.006;8.286;2022-07-03T16:34:59;1.80;;;0.90;;
8425;SDS011;4250;50.006;8.286;2022-07-03T16:37:36;1.23;;;0.90;;
8425;SDS011;4250;50.006;8.286;2022-07-03T16:40:03;1.00;;;0.80;;
8425;SDS011;4250;50.006;8.286;2022-07-03T16:42:30;5.15;;;0.80;;
8425;SDS011;4250;50.006;8.286;2022-07-03T16:44:57;1.73;;;0.88;;
8425;SDS011;4250;50.006;8.286;2022-07-03T16:47:25;1.52;;;0.80;;
8425;SDS011;4250;50.006;8.286;2022-07-03T16:49:51;4.32;;;0.82;;
8425;SDS011;4250;50.006;8.286;2022-07-03T16:52:17;2.60;;;0.60;;
8425;SDS011;4250;50.006;8.286;2022-07-03T16:54:43;0.90;;;0.70;;